Time;durP1;ratioP1;P1;durP2;ratioP2;P2;SDS_P1;SDS_P2;PMS_P1;PMS_P2;Temp;Humidity;BMP_temperature;BMP_pressure;BME280_temperature;BME280_humidity;BME280_pressure;Samples;Min_cycle;Max_cycle;Signal;HPM_P1;HPM_P2
2022/09/11 00:00:51;;;;;;;3.10;1.60;;;;;;;15.64;100.00;100374.28;4965633;28;20280;-76
2022/09/11 00:03:19;;;;;;;2.13;1.40;;;;;;;15.64;100.00;100369.06;4965568;28;20261;-75
2022/09/11 00:05:44;;;;;;;1.83;1.60;;;;;;;15.66;100.00;100364.66;4968198;28;20206;-75
2022/09/11 00:08:12;;;;;;;2.03;1.43;;;;;;;15.67;100.00;100373.34;4965844;28;20222;-75
2022/09/11 00:10:40;;;;;;;1.90;1.40;;;;;;;15.70;100.00;100370.66;4965192;28;20282;-75
2022/09/11 00:13:10;;;;;;;3.77;1.73;;;;;;;15.72;100.00;100362.78;4965354;28;20653;-74
2022/09/11 00:15:41;;;;;;;2.03;1.60;;;;;;;15.73;100.00;100364.50;4962762;28;20782;-75
2022/09/11 00:18:09;;;;;;;2.07;1.70;;;;;;;15.72;100.00;100355.81;4964410;28;20218;-73
2022/09/11 00:20:35;;;;;;;2.53;1.53;;;;;;;15.72;100.00;100353.19;4965827;28;20256;-75
2022/09/11 00:23:02;;;;;;;2.77;1.63;;;;;;;15.73;100.00;100360.13;4966489;28;20192;-75
2022/09/11 00:25:28;;;;;;;2.03;1.83;;;;;;;15.75;100.00;100366.16;4964620;28;20194;-76
2022/09/11 00:27:54;;;;;;;2.00;1.60;;;;;;;15.76;100.00;100365.25;4970799;28;20231;-75
2022/09/11 00:30:20;;;;;;;1.70;1.50;;;;;;;15.78;100.00;100368.69;4967595;28;20193;-73
2022/09/11 00:32:45;;;;;;;2.87;1.60;;;;;;;15.81;100.00;100368.56;4966979;28;20546;-75
2022/09/11 00:35:11;;;;;;;3.50;1.80;;;;;;;15.81;100.00;100371.19;4968490;28;20201;-75
2022/09/11 00:37:37;;;;;;;2.93;2.07;;;;;;;15.84;100.00;100368.50;4964105;28;20214;-76
2022/09/11 00:40:02;;;;;;;2.30;1.63;;;;;;;15.84;100.00;100373.72;4960488;28;20243;-74
2022/09/11 00:42:29;;;;;;;2.07;1.57;;;;;;;15.85;100.00;100369.38;4969423;28;20248;-74
2022/09/11 00:45:00;;;;;;;4.10;1.63;;;;;;;15.87;100.00;100372.81;4964736;28;20190;-74
2022/09/11 00:47:28;;;;;;;2.47;1.53;;;;;;;15.88;100.00;100369.31;4961268;28;20719;-75
2022/09/11 00:50:07;;;;;;;1.67;1.47;;;;;;;15.89;100.00;100376.22;4964307;28;20197;-74
2022/09/11 00:52:37;;;;;;;1.93;1.60;;;;;;;15.89;100.00;100372.75;4962928;28;20217;-74
2022/09/11 00:55:13;;;;;;;2.40;1.87;;;;;;;15.92;100.00;100375.28;4960723;28;20193;-73
2022/09/11 00:57:44;;;;;;;3.27;1.80;;;;;;;15.92;100.00;100377.88;4964092;28;20213;-73
2022/09/11 01:00:11;;;;;;;3.67;2.13;;;;;;;15.93;100.00;100377.00;4966530;28;20553;-73
2022/09/11 01:02:38;;;;;;;2.37;1.80;;;;;;;15.93;100.00;100370.00;4962722;28;20231;-74
2022/09/11 01:05:05;;;;;;;2.73;1.90;;;;;;;15.94;100.00;100373.47;4963742;28;20190;-75
2022/09/11 01:07:32;;;;;;;3.03;1.83;;;;;;;15.92;100.00;100370.91;4964296;28;20664;-76
2022/09/11 01:09:58;;;;;;;3.37;2.10;;;;;;;15.92;100.00;100378.72;4971884;28;20212;-73
2022/09/11 01:12:26;;;;;;;3.33;2.10;;;;;;;15.92;100.00;100373.50;4966142;28;20296;-74
2022/09/11 01:15:04;;;;;;;1.67;1.57;;;;;;;15.94;100.00;100376.94;4973908;28;20603;-74
2022/09/11 01:17:45;;;;;;;2.33;1.53;;;;;;;15.94;100.00;100371.72;4970228;28;20197;-73
2022/09/11 01:20:27;;;;;;;2.90;1.93;;;;;;;15.95;100.00;100375.19;4975127;28;20190;-75
2022/09/11 01:23:20;;;;;;;2.27;1.80;;;;;;;15.94;100.00;100378.69;4970144;28;20189;-74
2022/09/11 01:25:45;;;;;;;3.03;1.50;;;;;;;15.94;100.00;100384.75;4980696;28;20190;-73
2022/09/11 01:28:34;;;;;;;2.47;1.70;;;;;;;15.94;100.00;100386.53;4960421;28;20594;-74
2022/09/11 01:31:06;;;;;;;2.30;1.67;;;;;;;15.92;100.00;100389.16;4966331;28;20412;-73
2022/09/11 01:33:54;;;;;;;3.27;2.13;;;;;;;15.91;100.00;100382.25;4968546;28;20678;-76
2022/09/11 01:36:30;;;;;;;2.83;1.70;;;;;;;15.89;100.00;100377.97;4965802;28;20190;-74
2022/09/11 01:38:59;;;;;;;2.80;1.90;;;;;;;15.85;100.00;100367.63;4969630;28;20576;-73
2022/09/11 01:41:39;;;;;;;1.83;1.60;;;;;;;15.80;100.00;100374.72;4964694;28;20285;-74
2022/09/11 01:44:46;;;;;;;2.60;2.10;;;;;;;15.78;100.00;100383.47;4968721;28;20227;-74
2022/09/11 01:47:15;;;;;;;2.20;1.50;;;;;;;15.74;100.00;100384.44;4904335;29;20224;-75
2022/09/11 01:49:49;;;;;;;1.87;1.77;;;;;;;15.72;100.00;100384.50;4955115;28;20200;-75
2022/09/11 01:52:20;;;;;;;2.10;1.90;;;;;;;15.72;100.00;100388.88;4964244;28;20197;-74
2022/09/11 01:54:52;;;;;;;2.53;1.83;;;;;;;15.73;100.00;100382.78;4965830;28;20223;-77
2022/09/11 01:57:26;;;;;;;2.40;2.20;;;;;;;15.73;100.00;100383.59;4958702;28;20249;-73
2022/09/11 01:59:57;;;;;;;2.23;1.90;;;;;;;15.74;100.00;100395.75;4967563;28;20194;-75
2022/09/11 02:02:35;;;;;;;2.40;2.20;;;;;;;15.77;100.00;100386.97;4966435;28;20192;-74
2022/09/11 02:05:14;;;;;;;3.03;2.07;;;;;;;15.77;100.00;100380.03;4966819;28;20443;-76
2022/09/11 02:07:54;;;;;;;2.50;1.93;;;;;;;15.77;100.00;100382.63;4970022;28;20323;-73
2022/09/11 02:10:30;;;;;;;3.27;2.33;;;;;;;15.77;100.00;100389.59;4966159;28;20201;-75
2022/09/11 02:13:04;;;;;;;4.77;2.40;;;;;;;15.72;100.00;100388.88;4968949;28;20240;-72
2022/09/11 02:15:45;;;;;;;2.67;2.13;;;;;;;15.69;100.00;100385.47;4963771;28;20221;-74
2022/09/11 02:18:18;;;;;;;3.63;2.07;;;;;;;15.67;100.00;100391.59;4961939;28;20300;-74
2022/09/11 02:20:46;;;;;;;3.20;2.33;;;;;;;15.65;100.00;100391.66;4963934;28;20220;-75
2022/09/11 02:23:12;;;;;;;2.93;2.20;;;;;;;15.64;100.00;100391.72;4967267;28;20189;-74
2022/09/11 02:25:38;;;;;;;2.83;2.40;;;;;;;15.62;100.00;100393.50;4965457;28;20185;-75
2022/09/11 02:28:04;;;;;;;4.60;2.50;;;;;;;15.60;100.00;100385.69;4965266;28;20217;-74
2022/09/11 02:30:30;;;;;;;2.60;2.33;;;;;;;15.58;100.00;100394.47;4967054;28;20670;-74
2022/09/11 02:32:55;;;;;;;2.97;2.20;;;;;;;15.54;100.00;100383.28;4967487;28;20256;-76
2022/09/11 02:35:26;;;;;;;3.57;2.57;;;;;;;15.53;100.00;100389.41;4965177;28;20190;-75
2022/09/11 02:38:18;;;;;;;3.40;2.60;;;;;;;15.52;100.00;100395.50;4966427;28;20308;-74
2022/09/11 02:41:18;;;;;;;2.90;2.67;;;;;;;15.48;100.00;100394.75;4969873;28;20239;-73
2022/09/11 02:44:13;;;;;;;2.80;1.90;;;;;;;15.51;100.00;100399.00;4955042;28;20255;-75
2022/09/11 02:46:58;;;;;;;2.97;2.30;;;;;;;15.55;100.00;100403.25;4961976;28;20792;-73
2022/09/11 02:49:42;;;;;;;2.47;2.27;;;;;;;15.58;100.00;100404.91;4962038;28;20205;-73
2022/09/11 02:52:29;;;;;;;2.70;2.50;;;;;;;15.59;100.00;100402.25;4963434;28;20199;-74
2022/09/11 02:55:39;;;;;;;2.77;2.37;;;;;;;15.59;100.00;100407.47;4965448;28;20237;-73
2022/09/11 02:58:14;;;;;;;2.87;2.37;;;;;;;15.58;100.00;100403.16;4935641;28;20232;-75
2022/09/11 03:00:40;;;;;;;2.20;2.10;;;;;;;15.60;100.00;100409.19;4966958;28;20188;-73
2022/09/11 03:03:06;;;;;;;3.20;2.10;;;;;;;15.64;100.00;100413.41;4968756;28;20737;-74
2022/09/11 03:05:31;;;;;;;3.00;2.13;;;;;;;15.64;100.00;100409.97;4967248;28;20357;-73
2022/09/11 03:07:58;;;;;;;3.90;2.43;;;;;;;15.66;100.00;100415.97;4963803;28;20708;-74
2022/09/11 03:10:26;;;;;;;4.10;2.30;;;;;;;15.66;100.00;100411.63;4964841;28;20189;-75
2022/09/11 03:12:51;;;;;;;2.70;2.50;;;;;;;15.69;100.00;100415.91;4965494;28;20182;-73
2022/09/11 03:15:18;;;;;;;2.60;2.40;;;;;;;15.72;100.00;100418.44;4966079;28;20185;-73
2022/09/11 03:17:44;;;;;;;3.63;2.53;;;;;;;15.72;100.00;100410.59;4963272;28;20233;-76
2022/09/11 03:20:09;;;;;;;2.63;2.20;;;;;;;15.73;100.00;100416.69;4965403;28;20221;-75
2022/09/11 03:22:35;;;;;;;2.33;2.13;;;;;;;15.74;100.00;100424.47;4967426;28;20573;-75
2022/09/11 03:25:00;;;;;;;3.27;2.50;;;;;;;15.76;100.00;100422.66;4967369;28;20214;-75
2022/09/11 03:27:26;;;;;;;5.50;2.57;;;;;;;15.78;100.00;100420.00;4960186;28;20225;-75
2022/09/11 03:29:51;;;;;;;3.80;2.10;;;;;;;15.77;100.00;100426.13;4964126;28;20188;-74
2022/09/11 03:32:17;;;;;;;2.83;2.10;;;;;;;15.77;100.00;100427.00;4961728;28;20669;-74
2022/09/11 03:34:42;;;;;;;2.60;2.20;;;;;;;15.77;100.00;100434.81;4961843;28;20555;-74
2022/09/11 03:37:07;;;;;;;2.17;1.90;;;;;;;15.79;100.00;100433.03;4960449;28;20659;-75
2022/09/11 03:39:33;;;;;;;3.67;2.30;;;;;;;15.78;100.00;100428.69;4957837;28;20397;-75
2022/09/11 03:41:58;;;;;;;2.67;2.07;;;;;;;15.81;100.00;100427.75;4956681;28;20659;-77
2022/09/11 03:44:23;;;;;;;2.30;2.10;;;;;;;15.80;100.00;100423.44;4960951;28;20682;-74
2022/09/11 03:46:49;;;;;;;2.93;2.07;;;;;;;15.79;100.00;100422.59;4967077;28;20221;-74
2022/09/11 03:49:14;;;;;;;3.50;2.30;;;;;;;15.79;100.00;100430.41;4964239;28;20315;-73
2022/09/11 03:51:40;;;;;;;2.93;2.37;;;;;;;15.78;100.00;100430.44;4965156;28;20189;-74
2022/09/11 03:54:06;;;;;;;2.47;2.00;;;;;;;15.76;100.00;100427.00;4965198;28;20213;-75
2022/09/11 03:56:31;;;;;;;3.93;2.30;;;;;;;15.74;100.00;100424.47;4963499;28;20186;-77
2022/09/11 03:59:01;;;;;;;2.30;2.07;;;;;;;15.74;100.00;100419.25;4963753;28;20597;-74
2022/09/11 04:01:26;;;;;;;3.83;2.30;;;;;;;15.71;100.00;100421.94;4963967;28;20271;-74
2022/09/11 04:03:54;;;;;;;2.43;2.17;;;;;;;15.68;100.00;100420.28;4966082;28;20311;-75
2022/09/11 04:06:20;;;;;;;2.83;2.30;;;;;;;15.64;100.00;100416.03;4960884;28;20202;-76
2022/09/11 04:08:45;;;;;;;5.47;2.50;;;;;;;15.63;100.00;100418.69;4966699;28;20216;-75
2022/09/11 04:11:13;;;;;;;4.07;2.80;;;;;;;15.58;100.00;100421.41;4966571;28;20182;-74
2022/09/11 04:13:40;;;;;;;3.17;2.50;;;;;;;15.56;100.00;100418.00;4963394;28;20186;-76
2022/09/11 04:16:11;;;;;;;4.63;2.70;;;;;;;15.54;100.00;100425.84;4962738;28;20196;-74
2022/09/11 04:18:38;;;;;;;2.87;2.43;;;;;;;15.52;100.00;100417.22;4959491;28;20714;-74
2022/09/11 04:21:11;;;;;;;3.23;2.70;;;;;;;15.52;100.00;100427.66;4964574;28;20751;-73
2022/09/11 04:23:37;;;;;;;3.27;2.30;;;;;;;15.51;100.00;100425.94;4965091;28;20195;-74
2022/09/11 04:26:03;;;;;;;2.83;2.43;;;;;;;15.48;100.00;100433.88;4961019;28;20189;-75
2022/09/11 04:28:30;;;;;;;5.00;2.47;;;;;;;15.48;100.00;100423.44;4968432;28;20624;-76
2022/09/11 04:30:56;;;;;;;2.70;2.33;;;;;;;15.47;100.00;100428.69;4964263;28;20269;-75
2022/09/11 04:33:23;;;;;;;2.97;2.70;;;;;;;15.46;100.00;100433.06;4959823;28;20268;-75
2022/09/11 04:35:49;;;;;;;3.67;2.80;;;;;;;15.44;100.00;100440.06;4961908;28;20242;-74
2022/09/11 04:38:14;;;;;;;3.23;2.80;;;;;;;15.42;100.00;100444.44;4962071;28;20627;-74
2022/09/11 04:40:39;;;;;;;4.43;2.93;;;;;;;15.41;100.00;100445.34;4965065;28;20196;-74
2022/09/11 04:43:05;;;;;;;2.80;2.60;;;;;;;15.41;100.00;100447.13;4964844;28;20186;-76
2022/09/11 04:45:32;;;;;;;3.23;2.60;;;;;;;15.38;100.00;100448.91;4962898;28;20703;-75
2022/09/11 04:47:58;;;;;;;3.10;2.80;;;;;;;15.39;100.00;100452.34;4972556;28;20381;-75
2022/09/11 04:50:23;;;;;;;4.23;3.13;;;;;;;15.37;100.00;100457.63;4971547;28;20187;-74
2022/09/11 04:52:48;;;;;;;3.10;2.83;;;;;;;15.37;100.00;100460.22;4970604;28;20200;-75
2022/09/11 04:55:14;;;;;;;3.37;2.97;;;;;;;15.37;100.00;100467.19;4967205;28;20208;-74
2022/09/11 04:57:39;;;;;;;3.83;3.53;;;;;;;15.35;100.00;100461.19;4967002;28;20292;-74
2022/09/11 05:00:05;;;;;;;3.50;3.20;;;;;;;15.34;100.00;100469.88;4967344;28;20205;-74
2022/09/11 05:02:31;;;;;;;3.70;3.40;;;;;;;15.34;100.00;100469.88;4967139;28;20288;-74
2022/09/11 05:04:57;;;;;;;3.93;3.60;;;;;;;15.34;100.00;100469.88;4975428;28;20633;-72
2022/09/11 05:07:24;;;;;;;3.83;3.53;;;;;;;15.34;100.00;100467.28;4967943;28;20218;-73
2022/09/11 05:09:49;;;;;;;4.00;3.67;;;;;;;15.32;100.00;100466.47;4968511;28;20188;-74
2022/09/11 05:12:14;;;;;;;4.07;3.30;;;;;;;15.33;100.00;100476.84;4963173;28;20671;-74
2022/09/11 05:14:40;;;;;;;3.17;2.90;;;;;;;15.34;100.00;100472.50;4965866;28;20205;-75
2022/09/11 05:17:05;;;;;;;3.40;3.10;;;;;;;15.35;100.00;100482.88;4966385;28;20284;-73
2022/09/11 05:19:30;;;;;;;3.60;3.30;;;;;;;15.37;100.00;100482.81;4964436;28;20196;-74
2022/09/11 05:21:56;;;;;;;3.43;3.13;;;;;;;15.38;100.00;100482.81;4967222;28;20590;-74
2022/09/11 05:24:21;;;;;;;3.83;3.23;;;;;;;15.39;100.00;100488.84;4967146;28;20203;-73
2022/09/11 05:26:46;;;;;;;3.20;2.87;;;;;;;15.41;100.00;100481.00;4963658;28;20242;-74
2022/09/11 05:29:13;;;;;;;3.43;3.13;;;;;;;15.43;100.00;100487.06;4962966;28;20614;-73
2022/09/11 05:31:39;;;;;;;3.37;2.83;;;;;;;15.46;100.00;100484.34;4964336;28;20197;-73
2022/09/11 05:34:05;;;;;;;3.73;3.00;;;;;;;15.49;100.00;100486.88;4962637;28;20189;-76
2022/09/11 05:36:32;;;;;;;3.70;3.30;;;;;;;15.51;100.00;100491.13;4965652;28;20186;-73
2022/09/11 05:38:58;;;;;;;3.77;3.27;;;;;;;15.55;100.00;100492.78;4965578;28;20204;-73
2022/09/11 05:41:24;;;;;;;4.33;3.40;;;;;;;15.60;100.00;100497.03;4965238;28;20209;-73
2022/09/11 05:43:50;;;;;;;3.47;3.17;;;;;;;15.62;100.00;100508.28;4972532;28;20181;-73
2022/09/11 05:46:17;;;;;;;3.70;3.40;;;;;;;15.64;100.00;100515.16;4964207;28;20285;-74
2022/09/11 05:48:43;;;;;;;3.80;3.50;;;;;;;15.67;100.00;100519.44;4968153;28;20264;-74
2022/09/11 05:51:15;;;;;;;3.70;3.30;;;;;;;15.70;100.00;100521.97;4971232;28;20183;-74
2022/09/11 05:53:40;;;;;;;3.63;3.33;;;;;;;15.73;100.00;100521.06;4974211;28;20193;-76
2022/09/11 05:56:14;;;;;;;2.77;2.57;;;;;;;15.77;100.00;100525.28;4979823;28;20189;-74
2022/09/11 05:58:40;;;;;;;3.47;2.93;;;;;;;15.81;100.00;100530.34;4978675;28;20213;-75
2022/09/11 06:01:14;;;;;;;3.87;3.13;;;;;;;15.88;100.00;100533.72;4975318;28;20260;-75
2022/09/11 06:03:40;;;;;;;3.43;2.87;;;;;;;15.92;100.00;100537.94;4972600;28;20244;-75
2022/09/11 06:06:08;;;;;;;3.30;2.80;;;;;;;15.99;100.00;100531.66;4979676;28;20216;-74
2022/09/11 06:08:34;;;;;;;3.07;2.80;;;;;;;16.04;100.00;100534.16;4976827;28;20312;-74
2022/09/11 06:11:06;;;;;;;4.40;3.30;;;;;;;16.09;100.00;100540.09;4975189;28;20275;-74
2022/09/11 06:13:34;;;;;;;3.10;2.83;;;;;;;16.14;100.00;100539.97;4979758;28;20189;-76
2022/09/11 06:15:59;;;;;;;2.80;2.53;;;;;;;16.19;100.00;100539.84;4965292;28;20192;-75
2022/09/11 06:18:25;;;;;;;4.00;3.10;;;;;;;16.23;100.00;100544.91;4977821;28;20209;-74
2022/09/11 06:20:59;;;;;;;3.37;3.07;;;;;;;16.27;100.00;100549.16;4972386;28;20220;-74
2022/09/11 06:23:25;;;;;;;4.13;2.97;;;;;;;16.32;100.00;100556.84;4982732;28;20197;-75
2022/09/11 06:25:53;;;;;;;4.77;2.73;;;;;;;16.35;100.00;100554.16;4968545;28;20201;-75
2022/09/11 06:28:23;;;;;;;4.63;3.10;;;;;;;16.39;100.00;100555.81;4981079;28;20252;-75
2022/09/11 06:30:50;;;;;;;4.57;2.67;;;;;;;16.43;100.00;100559.16;4969585;28;20259;-74
2022/09/11 06:33:15;;;;;;;4.17;3.20;;;;;;;16.46;100.00;100564.31;4967332;28;20189;-75
2022/09/11 06:35:40;;;;;;;3.13;2.93;;;;;;;16.50;100.00;100563.31;4967132;28;20235;-75
2022/09/11 06:38:06;;;;;;;3.13;2.87;;;;;;;16.54;100.00;100561.47;4968581;28;20627;-74
2022/09/11 06:40:31;;;;;;;3.50;2.90;;;;;;;16.62;100.00;100564.69;4973608;28;20181;-75
2022/09/11 06:42:57;;;;;;;4.03;3.30;;;;;;;16.67;100.00;100562.81;4973176;28;20232;-75
2022/09/11 06:45:23;;;;;;;3.33;3.03;;;;;;;16.74;100.00;100561.72;4973550;28;20220;-76
2022/09/11 06:47:48;;;;;;;4.00;3.70;;;;;;;16.84;100.00;100558.84;4964616;28;20598;-75
2022/09/11 06:50:14;;;;;;;4.33;3.63;;;;;;;16.95;100.00;100555.91;4969927;28;20201;-74
2022/09/11 06:52:39;;;;;;;3.80;3.50;;;;;;;17.08;100.00;100559.00;4969465;28;20189;-75
2022/09/11 06:55:06;;;;;;;3.57;3.20;;;;;;;17.23;100.00;100557.66;4963977;28;20189;-77
2022/09/11 06:57:31;;;;;;;4.07;3.43;;;;;;;17.34;100.00;100558.16;4966369;28;20227;-74
2022/09/11 06:59:57;;;;;;;3.70;3.40;;;;;;;17.46;100.00;100557.75;4967750;28;20547;-74
2022/09/11 07:02:22;;;;;;;3.80;3.40;;;;;;;17.58;100.00;100555.63;4965888;28;20676;-73
2022/09/11 07:04:48;;;;;;;3.47;3.17;;;;;;;17.66;100.00;100558.84;4967012;28;20193;-75
2022/09/11 07:07:13;;;;;;;3.77;3.40;;;;;;;17.71;100.00;100550.84;4963495;28;20251;-75
2022/09/11 07:09:39;;;;;;;5.40;3.77;;;;;;;17.78;100.00;100558.41;4960008;28;20189;-74
2022/09/11 07:12:04;;;;;;;3.77;3.30;;;;;;;17.80;100.00;100558.34;4963707;28;20195;-75
2022/09/11 07:14:30;;;;;;;4.23;3.70;;;;;;;17.84;100.00;100565.19;4957718;28;20194;-75
2022/09/11 07:16:55;;;;;;;3.63;3.33;;;;;;;17.89;100.00;100567.66;4953609;28;20744;-76
2022/09/11 07:19:23;;;;;;;3.87;3.37;;;;;;;17.90;100.00;100561.50;4956736;28;20595;-75
2022/09/11 07:21:49;;;;;;;4.03;3.70;;;;;;;17.90;100.00;100570.25;4958005;28;20203;-75
2022/09/11 07:24:14;;;;;;;4.10;3.70;;;;;;;17.91;100.00;100565.84;4955195;28;20203;-76
2022/09/11 07:26:39;;;;;;;4.63;4.07;;;;;;;17.96;100.00;100566.53;4957550;28;22007;-75
2022/09/11 07:29:05;;;;;;;4.33;3.93;;;;;;;18.02;100.00;100570.75;4960888;28;20192;-77
2022/09/11 07:31:33;;;;;;;5.60;4.73;;;;;;;18.07;100.00;100569.66;4962310;28;20221;-75
2022/09/11 07:33:59;;;;;;;4.27;3.97;;;;;;;18.10;100.00;100573.91;4958544;28;20456;-76
2022/09/11 07:36:26;;;;;;;5.17;4.67;;;;;;;18.16;100.00;100578.09;4957817;28;20220;-74
2022/09/11 07:38:53;;;;;;;4.93;4.50;;;;;;;18.16;100.00;100583.31;4957446;28;20188;-74
2022/09/11 07:41:20;;;;;;;5.13;4.73;;;;;;;18.17;100.00;100583.28;4958399;28;20205;-73
2022/09/11 07:43:49;;;;;;;5.40;4.83;;;;;;;18.18;100.00;100584.13;4962489;28;20182;-74
2022/09/11 07:46:14;;;;;;;7.63;5.87;;;;;;;18.20;100.00;100575.31;4962683;28;20890;-75
2022/09/11 07:48:41;;;;;;;5.47;4.97;;;;;;;18.20;100.00;100590.16;4958862;28;20224;-76
2022/09/11 07:51:09;;;;;;;5.10;4.70;;;;;;;18.28;100.00;100586.38;4977575;28;20211;-76
2022/09/11 07:53:37;;;;;;;5.20;4.80;;;;;;;18.43;100.00;100591.94;4961914;28;20265;-73
2022/09/11 07:56:08;;;;;;;5.17;4.77;;;;;;;18.61;100.00;100600.03;4965855;28;20195;-74
2022/09/11 07:58:41;;;;;;;5.80;5.30;;;;;;;18.77;100.00;100597.69;4963106;28;20347;-73
2022/09/11 08:01:15;;;;;;;5.77;5.27;;;;;;;18.89;100.00;100603.31;4963722;28;20188;-74
2022/09/11 08:03:44;;;;;;;5.50;5.10;;;;;;;18.96;100.00;100596.09;4963509;28;20552;-76
2022/09/11 08:06:15;;;;;;;4.63;4.23;;;;;;;19.08;100.00;100601.78;4965375;28;20222;-72
2022/09/11 08:08:42;;;;;;;5.50;5.00;;;;;;;19.15;100.00;100596.22;4964136;28;20214;-75
2022/09/11 08:11:11;;;;;;;4.63;4.30;;;;;;;19.19;100.00;100594.34;4962455;28;20477;-75
2022/09/11 08:13:37;;;;;;;4.73;4.43;;;;;;;19.23;100.00;100593.28;4965412;28;20193;-75
2022/09/11 08:16:03;;;;;;;5.23;4.80;;;;;;;19.29;100.00;100594.81;4964524;28;20225;-74
2022/09/11 08:18:29;;;;;;;5.00;4.60;;;;;;;19.41;100.00;100596.09;4971018;28;20525;-73
2022/09/11 08:21:02;;;;;;;5.63;5.13;;;;;;;19.59;100.00;100600.56;4965472;28;20533;-73
2022/09/11 08:23:27;;;;;;;5.57;5.17;;;;;;;19.71;100.00;100601.84;4966988;28;20247;-74
2022/09/11 08:25:53;;;;;;;5.03;4.63;;;;;;;19.87;100.00;100594.19;4966601;28;20200;-74
2022/09/11 08:28:18;;;;;;;5.27;4.87;;;;;;;20.04;100.00;100596.06;4969871;28;20224;-73
2022/09/11 08:30:44;;;;;;;5.30;4.80;;;;;;;20.32;100.00;100594.00;4967222;28;20216;-75
2022/09/11 08:33:11;;;;;;;5.43;4.93;;;;;;;20.61;100.00;100605.84;4968531;28;20237;-74
2022/09/11 08:35:37;;;;;;;4.70;4.30;;;;;;;20.86;100.00;100607.34;4966667;28;20200;-74
2022/09/11 08:38:02;;;;;;;4.70;4.30;;;;;;;20.99;100.00;100599.75;4964980;28;20221;-74
2022/09/11 08:40:29;;;;;;;4.33;3.93;;;;;;;21.02;100.00;100600.44;4967965;28;20200;-76
2022/09/11 08:43:00;;;;;;;4.70;4.30;;;;;;;21.03;100.00;100606.53;4972036;28;20225;-75
2022/09/11 08:45:32;;;;;;;4.20;3.90;;;;;;;21.10;100.00;100601.84;4968590;28;20217;-74
2022/09/11 08:47:59;;;;;;;4.10;3.80;;;;;;;21.26;100.00;100613.31;4965486;28;20224;-74
2022/09/11 08:50:41;;;;;;;5.83;4.40;;;;;;;21.56;100.00;100612.75;4979021;28;20761;-76
2022/09/11 08:53:14;;;;;;;4.23;3.93;;;;;;;21.61;100.00;100610.78;4969991;28;20186;-75
2022/09/11 08:55:45;;;;;;;4.43;4.13;;;;;;;21.60;100.00;100613.50;4967270;28;20193;-75
2022/09/11 08:58:29;;;;;;;3.70;3.40;;;;;;;21.55;100.00;100613.69;4965904;28;20655;-75
2022/09/11 09:01:25;;;;;;;4.30;3.90;;;;;;;21.42;100.00;100610.81;4964598;28;20696;-76
2022/09/11 09:04:15;;;;;;;3.90;3.70;;;;;;;21.34;100.00;100617.38;4969990;28;20207;-75
2022/09/11 09:06:46;;;;;;;3.77;3.37;;;;;;;21.29;100.00;100614.97;4971209;28;20237;-76
2022/09/11 09:09:24;;;;;;;4.13;3.73;;;;;;;21.28;100.00;100621.16;4967338;28;20197;-74
2022/09/11 09:11:56;;;;;;;4.07;3.77;;;;;;;21.30;100.00;100616.69;4963994;28;20194;-75
2022/09/11 09:14:54;;;;;;;4.37;4.07;;;;;;;21.39;100.00;100612.75;4965196;28;20197;-74
2022/09/11 09:17:27;;;;;;;4.47;4.03;;;;;;;21.48;100.00;100607.84;4946659;28;20709;-74
2022/09/11 09:19:59;;;;;;;4.20;3.90;;;;;;;21.62;100.00;100611.63;4968671;28;20556;-74
2022/09/11 09:22:36;;;;;;;3.87;3.57;;;;;;;21.89;100.00;100609.38;4963768;28;20652;-73
2022/09/11 09:25:10;;;;;;;4.97;4.30;;;;;;;22.26;98.14;100608.38;4966037;28;20188;-73
2022/09/11 09:27:43;;;;;;;4.07;3.77;;;;;;;22.56;97.93;100612.97;4979903;28;20221;-74
2022/09/11 09:30:15;;;;;;;4.30;3.37;;;;;;;22.77;97.12;100608.31;4963759;28;20190;-73
2022/09/11 09:32:46;;;;;;;3.90;3.60;;;;;;;22.84;96.73;100605.25;4965610;28;20186;-74
2022/09/11 09:35:40;;;;;;;3.70;3.40;;;;;;;22.95;96.30;100603.78;4963141;28;20197;-74
2022/09/11 09:38:18;;;;;;;4.10;3.80;;;;;;;23.04;95.47;100592.75;4967833;28;20729;-75
2022/09/11 09:41:10;;;;;;;3.53;3.30;;;;;;;23.07;94.91;100602.25;4967990;28;20573;-75
2022/09/11 09:43:59;;;;;;;4.23;3.90;;;;;;;23.19;93.59;100598.09;4972787;28;20264;-75
2022/09/11 09:46:45;;;;;;;4.30;3.90;;;;;;;23.13;93.25;100599.28;4972197;28;20401;-75
2022/09/11 09:49:26;;;;;;;4.07;3.77;;;;;;;23.25;93.84;100603.91;4966148;28;20236;-74
2022/09/11 09:51:54;;;;;;;3.70;3.40;;;;;;;23.34;93.96;100599.88;4971892;28;20268;-74
2022/09/11 09:54:25;;;;;;;3.63;3.33;;;;;;;23.24;94.29;100602.19;4962649;28;20189;-75
2022/09/11 09:57:04;;;;;;;3.73;3.50;;;;;;;23.16;94.76;100601.72;4967437;28;20312;-73
2022/09/11 09:59:42;;;;;;;3.57;3.37;;;;;;;23.22;95.12;100596.16;4967458;28;20239;-75
2022/09/11 10:02:07;;;;;;;4.13;3.73;;;;;;;23.41;93.73;100598.56;4961989;28;20662;-74
2022/09/11 10:04:32;;;;;;;3.83;3.53;;;;;;;23.41;93.71;100597.72;4963278;28;20194;-74
2022/09/11 10:07:10;;;;;;;3.53;3.30;;;;;;;23.29;93.88;100596.63;4967838;28;20217;-74
2022/09/11 10:09:45;;;;;;;3.60;3.30;;;;;;;23.13;94.03;100596.66;4965094;28;20575;-74
2022/09/11 10:12:23;;;;;;;3.83;3.53;;;;;;;22.88;94.62;100592.72;4967037;28;20236;-75
2022/09/11 10:15:00;;;;;;;3.73;3.43;;;;;;;22.78;95.14;100602.94;4967546;28;20196;-74
2022/09/11 10:17:30;;;;;;;3.50;3.30;;;;;;;22.68;95.28;100600.00;4961595;28;20610;-74
2022/09/11 10:20:11;;;;;;;4.53;4.13;;;;;;;22.67;93.09;100592.13;4965522;28;20198;-74
2022/09/11 10:22:36;;;;;;;4.97;3.90;;;;;;;22.65;93.99;100594.88;4960710;28;20281;-75
2022/09/11 10:25:04;;;;;;;4.73;3.97;;;;;;;22.75;93.70;100589.94;4966888;28;20189;-75
2022/09/11 10:27:34;;;;;;;4.43;4.03;;;;;;;22.84;93.07;100592.06;4965182;28;20629;-73
2022/09/11 10:30:02;;;;;;;4.13;3.73;;;;;;;22.89;93.01;100583.03;4969846;28;20642;-76
2022/09/11 10:32:28;;;;;;;4.00;3.70;;;;;;;22.91;93.00;100574.09;4971079;28;20718;-74
2022/09/11 10:34:55;;;;;;;4.37;3.07;;;;;;;23.05;92.67;100573.31;4969684;28;20692;-74
2022/09/11 10:37:23;;;;;;;3.40;3.20;;;;;;;23.27;92.27;100572.13;4969283;28;20295;-74
2022/09/11 10:39:49;;;;;;;3.60;3.23;;;;;;;23.57;92.01;100565.97;4965129;28;20194;-74
2022/09/11 10:42:22;;;;;;;3.40;3.10;;;;;;;23.85;91.71;100564.31;4966261;28;20313;-75
2022/09/11 10:44:49;;;;;;;3.30;3.00;;;;;;;23.90;91.21;100568.38;4969444;28;20208;-73
2022/09/11 10:47:28;;;;;;;3.43;3.17;;;;;;;23.79;91.28;100575.28;4963922;28;20233;-74
2022/09/11 10:50:16;;;;;;;3.57;3.27;;;;;;;23.70;91.60;100572.22;4965877;28;20240;-72
2022/09/11 10:52:57;;;;;;;3.90;3.20;;;;;;;23.81;91.72;100582.16;4965559;28;20207;-74
2022/09/11 10:55:25;;;;;;;3.57;3.27;;;;;;;23.92;91.22;100573.59;4974312;28;20201;-74
2022/09/11 10:57:53;;;;;;;3.40;3.20;;;;;;;23.99;90.66;100566.16;4966920;28;20690;-74
2022/09/11 11:00:22;;;;;;;3.50;3.20;;;;;;;24.16;87.88;100579.19;4965277;28;20193;-77
2022/09/11 11:03:08;;;;;;;3.83;3.53;;;;;;;24.19;87.60;100565.78;4964557;28;20655;-74
2022/09/11 11:05:55;;;;;;;3.73;3.23;;;;;;;24.32;87.61;100570.31;4955284;28;20476;-76
2022/09/11 11:08:42;;;;;;;3.80;2.87;;;;;;;24.47;86.51;100564.06;4964593;28;20679;-73
2022/09/11 11:11:32;;;;;;;3.13;2.73;;;;;;;24.55;86.34;100570.66;4963483;28;20213;-75
2022/09/11 11:14:40;;;;;;;3.03;2.73;;;;;;;24.72;85.99;100570.47;4968109;28;20205;-75
2022/09/11 11:17:36;;;;;;;2.80;2.50;;;;;;;24.91;86.06;100564.00;4950931;28;21026;-76
2022/09/11 11:20:43;;;;;;;2.73;2.53;;;;;;;24.85;86.62;100562.59;4963413;28;20588;-75
2022/09/11 11:23:21;;;;;;;2.83;2.63;;;;;;;24.65;87.11;100569.97;4966301;28;20186;-75
2022/09/11 11:25:53;;;;;;;3.10;2.80;;;;;;;24.40;87.34;100569.84;4969943;28;20186;-76
2022/09/11 11:28:48;;;;;;;2.83;2.63;;;;;;;24.19;87.87;100571.09;4962625;28;20226;-75
2022/09/11 11:31:41;;;;;;;2.90;2.60;;;;;;;24.26;87.69;100560.97;4963762;28;20204;-75
2022/09/11 11:34:25;;;;;;;3.23;2.93;;;;;;;24.51;87.15;100565.53;4957334;28;20595;-76
2022/09/11 11:37:06;;;;;;;3.30;3.10;;;;;;;24.80;86.30;100567.31;4979252;28;20249;-76